Time;durP1;ratioP1;P1;durP2;ratioP2;P2;SDS_P1;SDS_P2;PMS_P1;PMS_P2;Temp;Humidity;BMP_temperature;BMP_pressure;BME280_temperature;BME280_humidity;BME280_pressure;Samples;Min_cycle;Max_cycle;Signal;HPM_P1;HPM_P2
2021/06/13 00:02:24;;;;;;;0.00;0.00;;;18.60;65.80;;;;;;5035160;28;20537;-66
2021/06/13 00:04:51;;;;;;;0.00;0.00;;;18.60;65.80;;;;;;5035274;28;20083;-66
2021/06/13 00:07:17;;;;;;;0.00;0.00;;;18.60;66.00;;;;;;5034975;28;20081;-66
2021/06/13 00:09:43;;;;;;;0.00;0.00;;;18.60;66.20;;;;;;5044108;28;20550;-66
2021/06/13 00:12:11;;;;;;;0.00;0.00;;;18.60;66.10;;;;;;5042699;28;20049;-66
2021/06/13 00:14:38;;;;;;;0.00;0.00;;;18.60;66.10;;;;;;5034952;28;20144;-66
2021/06/13 00:17:05;;;;;;;0.10;0.10;;;18.60;66.10;;;;;;5034991;28;20168;-66
2021/06/13 00:19:31;;;;;;;0.00;0.00;;;18.50;66.10;;;;;;5035358;28;20480;-66
2021/06/13 00:21:57;;;;;;;0.10;0.10;;;18.50;66.10;;;;;;5039038;28;20252;-66
2021/06/13 00:24:24;;;;;;;0.00;0.00;;;18.50;66.20;;;;;;5034652;28;20188;-66
2021/06/13 00:26:50;;;;;;;0.00;0.00;;;18.50;66.30;;;;;;5034852;28;20068;-66
2021/06/13 00:29:16;;;;;;;0.00;0.00;;;18.50;66.30;;;;;;5034500;28;20136;-66
2021/06/13 00:31:43;;;;;;;0.03;0.03;;;18.40;66.20;;;;;;5034520;28;20096;-66
2021/06/13 00:34:09;;;;;;;0.00;0.00;;;18.40;66.40;;;;;;5034482;28;20571;-66
2021/06/13 00:36:35;;;;;;;0.00;0.00;;;18.40;66.50;;;;;;5034617;28;20128;-66
2021/06/13 00:39:02;;;;;;;0.00;0.00;;;18.40;66.70;;;;;;5035159;28;20054;-66
2021/06/13 00:41:28;;;;;;;0.00;0.00;;;18.40;66.80;;;;;;5033551;28;20053;-66
2021/06/13 00:43:57;;;;;;;0.00;0.00;;;18.30;66.90;;;;;;5035935;28;20496;-66
2021/06/13 00:46:23;;;;;;;0.00;0.00;;;18.30;67.00;;;;;;5034306;28;20180;-66
2021/06/13 00:48:49;;;;;;;0.00;0.00;;;18.30;67.20;;;;;;5034223;28;20450;-66
2021/06/13 00:51:16;;;;;;;0.00;0.00;;;18.20;67.40;;;;;;5034434;28;20060;-66
2021/06/13 00:53:42;;;;;;;0.00;0.00;;;18.20;67.50;;;;;;5034516;28;20183;-66
2021/06/13 00:56:08;;;;;;;0.00;0.00;;;18.20;67.60;;;;;;5034492;28;20568;-66
2021/06/13 00:58:35;;;;;;;0.00;0.00;;;18.20;67.60;;;;;;5043155;28;20142;-66
2021/06/13 01:01:01;;;;;;;0.03;0.03;;;18.20;67.70;;;;;;5035967;28;20038;-65
2021/06/13 01:03:27;;;;;;;0.00;0.00;;;18.20;67.70;;;;;;5033322;28;20052;-66
2021/06/13 01:05:55;;;;;;;0.00;0.00;;;18.20;67.80;;;;;;5033056;28;20509;-66
2021/06/13 01:08:56;;;;;;;0.10;0.10;;;18.20;67.90;;;;;;5033098;28;20436;-66
2021/06/13 01:11:45;;;;;;;0.00;0.00;;;18.20;67.90;;;;;;5032959;28;20067;-66
2021/06/13 01:14:34;;;;;;;0.03;0.03;;;18.20;67.80;;;;;;5033148;28;20062;-66
2021/06/13 01:17:09;;;;;;;0.00;0.00;;;18.20;67.70;;;;;;5032713;28;20678;-66
2021/06/13 01:19:45;;;;;;;0.10;0.10;;;18.10;67.70;;;;;;5041090;28;20048;-66
2021/06/13 01:22:26;;;;;;;0.00;0.00;;;18.10;67.80;;;;;;5033342;28;20126;-66
2021/06/13 01:25:04;;;;;;;0.00;0.00;;;18.10;67.80;;;;;;5027183;28;20057;-65
2021/06/13 01:28:07;;;;;;;0.00;0.00;;;18.10;67.90;;;;;;5029635;28;20080;-66
2021/06/13 01:30:36;;;;;;;0.00;0.00;;;18.10;68.00;;;;;;5031858;28;20500;-66
2021/06/13 01:33:11;;;;;;;0.10;0.10;;;18.10;68.20;;;;;;5049391;28;20123;-66
2021/06/13 01:35:39;;;;;;;0.05;0.05;;;18.00;68.30;;;;;;5034298;28;20056;-66
2021/06/13 01:38:11;;;;;;;0.00;0.00;;;18.00;68.50;;;;;;5049951;28;20175;-66
2021/06/13 01:40:39;;;;;;;0.00;0.00;;;18.00;68.50;;;;;;5040227;28;20409;-66
2021/06/13 01:43:07;;;;;;;0.00;0.00;;;18.00;68.60;;;;;;5033912;28;20053;-66
2021/06/13 01:45:41;;;;;;;0.00;0.00;;;18.00;68.70;;;;;;5031243;28;20041;-66
2021/06/13 01:48:10;;;;;;;0.00;0.00;;;18.00;68.90;;;;;;5029243;28;20406;-66
2021/06/13 01:50:38;;;;;;;0.00;0.00;;;18.00;68.90;;;;;;5032234;28;20445;-66
2021/06/13 01:53:10;;;;;;;0.00;0.00;;;18.00;69.00;;;;;;5033209;28;20448;-66
2021/06/13 01:55:37;;;;;;;0.00;0.00;;;18.00;69.00;;;;;;5035275;28;20045;-66
2021/06/13 01:58:06;;;;;;;0.10;0.10;;;18.00;69.00;;;;;;5028379;28;111546;-67
2021/06/13 02:00:36;;;;;;;0.00;0.00;;;18.00;69.20;;;;;;5032757;28;20152;-66
2021/06/13 02:03:03;;;;;;;0.05;0.05;;;18.00;69.10;;;;;;5040730;28;20191;-66
2021/06/13 02:05:33;;;;;;;0.00;0.00;;;18.00;69.10;;;;;;5032888;28;20072;-65
2021/06/13 02:07:59;;;;;;;0.00;0.00;;;18.00;69.00;;;;;;5033008;28;20050;-66
2021/06/13 02:10:28;;;;;;;0.00;0.00;;;18.00;69.00;;;;;;5032412;28;20496;-66
2021/06/13 02:12:56;;;;;;;0.00;0.00;;;18.00;69.00;;;;;;5032557;28;20046;-66
2021/06/13 02:15:24;;;;;;;0.00;0.00;;;18.00;68.90;;;;;;5032382;28;20095;-66
2021/06/13 02:17:53;;;;;;;0.00;0.00;;;18.00;69.10;;;;;;5032266;28;20041;-66
2021/06/13 02:20:22;;;;;;;0.00;0.00;;;18.00;69.00;;;;;;5032322;28;20171;-66
2021/06/13 02:22:50;;;;;;;0.00;0.00;;;18.00;69.00;;;;;;5032133;28;20128;-66
2021/06/13 02:25:20;;;;;;;0.00;0.00;;;17.90;69.00;;;;;;5032598;28;20080;-66
2021/06/13 02:27:48;;;;;;;0.00;0.00;;;17.90;69.10;;;;;;5032434;28;20099;-66
2021/06/13 02:30:16;;;;;;;0.00;0.00;;;17.90;69.00;;;;;;5032191;28;20053;-66
2021/06/13 02:32:43;;;;;;;0.00;0.00;;;17.90;69.00;;;;;;5031919;28;20513;-66
2021/06/13 02:35:10;;;;;;;0.00;0.00;;;17.90;69.20;;;;;;5032200;28;20216;-66
2021/06/13 02:37:39;;;;;;;0.08;0.08;;;17.90;69.20;;;;;;5032106;28;20055;-66
2021/06/13 02:40:08;;;;;;;0.00;0.00;;;17.90;69.20;;;;;;5041285;28;20042;-66
2021/06/13 02:42:35;;;;;;;0.00;0.00;;;17.90;69.30;;;;;;5038376;28;20130;-66
2021/06/13 02:45:09;;;;;;;0.00;0.00;;;17.90;69.40;;;;;;5035310;28;20038;-66
2021/06/13 02:47:37;;;;;;;0.00;0.00;;;17.90;69.40;;;;;;5031880;28;20524;-66
2021/06/13 02:50:06;;;;;;;0.00;0.00;;;17.80;69.30;;;;;;5032212;28;20499;-66
2021/06/13 02:52:45;;;;;;;0.00;0.00;;;17.90;69.40;;;;;;5031892;28;20568;-65
2021/06/13 02:55:19;;;;;;;0.00;0.00;;;17.90;69.50;;;;;;5030956;28;20054;-66
2021/06/13 02:58:07;;;;;;;0.00;0.00;;;17.90;69.50;;;;;;5032169;28;20124;-66
2021/06/13 03:00:34;;;;;;;0.00;0.00;;;17.80;69.50;;;;;;5033584;28;20044;-65
2021/06/13 03:03:04;;;;;;;0.10;0.10;;;17.80;69.50;;;;;;5036486;28;20053;-66
2021/06/13 03:05:39;;;;;;;0.00;0.00;;;17.90;69.50;;;;;;5032043;28;20041;-66
2021/06/13 03:08:13;;;;;;;0.00;0.00;;;17.80;69.50;;;;;;5031371;28;20057;-66
2021/06/13 03:10:48;;;;;;;0.10;0.10;;;17.80;69.60;;;;;;5031219;28;20081;-65
2021/06/13 03:13:25;;;;;;;0.00;0.00;;;17.80;69.60;;;;;;5031265;28;20054;-65
2021/06/13 03:16:01;;;;;;;0.00;0.00;;;17.80;69.60;;;;;;5031001;28;20509;-66
2021/06/13 03:18:36;;;;;;;0.00;0.00;;;17.80;69.70;;;;;;5031218;28;20557;-66
2021/06/13 03:21:11;;;;;;;0.00;0.00;;;17.80;69.60;;;;;;5031137;28;20053;-66
2021/06/13 03:23:45;;;;;;;0.00;0.00;;;17.70;69.60;;;;;;5030781;28;20046;-65
2021/06/13 03:26:19;;;;;;;0.00;0.00;;;17.70;69.50;;;;;;5031113;28;20045;-66
2021/06/13 03:28:56;;;;;;;0.00;0.00;;;17.70;69.50;;;;;;5032570;28;20049;-66
2021/06/13 03:31:25;;;;;;;0.10;0.10;;;17.70;69.50;;;;;;5013384;28;20402;-66
2021/06/13 03:33:55;;;;;;;0.00;0.00;;;17.70;69.60;;;;;;5016813;28;20041;-66
2021/06/13 03:36:24;;;;;;;0.00;0.00;;;17.70;69.60;;;;;;5042932;28;20049;-66
2021/06/13 03:38:53;;;;;;;0.00;0.00;;;17.70;69.60;;;;;;5039468;28;20042;-66
2021/06/13 03:41:24;;;;;;;0.00;0.00;;;17.70;69.50;;;;;;5030805;28;20128;-66
2021/06/13 03:43:53;;;;;;;0.00;0.00;;;17.70;69.50;;;;;;5031146;28;20140;-66
2021/06/13 03:46:21;;;;;;;0.00;0.00;;;17.70;69.70;;;;;;5030650;28;20049;-66
2021/06/13 03:48:54;;;;;;;0.00;0.00;;;17.70;69.60;;;;;;5031058;28;20095;-66
2021/06/13 03:51:21;;;;;;;0.00;0.00;;;17.60;69.50;;;;;;5028896;28;20103;-65
2021/06/13 03:53:48;;;;;;;0.00;0.00;;;17.60;69.50;;;;;;5030842;28;20568;-66
2021/06/13 03:56:17;;;;;;;0.00;0.00;;;17.60;69.50;;;;;;5040240;28;20134;-66
2021/06/13 03:58:44;;;;;;;0.00;0.00;;;17.60;69.60;;;;;;5034550;28;20057;-66
2021/06/13 04:01:12;;;;;;;0.00;0.00;;;17.60;69.60;;;;;;5030826;28;20080;-66
2021/06/13 04:03:42;;;;;;;0.00;0.00;;;17.60;69.60;;;;;;5030994;28;20045;-65
2021/06/13 04:06:09;;;;;;;0.00;0.00;;;17.60;69.50;;;;;;5030780;28;20128;-65
2021/06/13 04:08:37;;;;;;;0.00;0.00;;;17.60;69.60;;;;;;5012907;28;20610;-66
2021/06/13 04:11:05;;;;;;;0.08;0.08;;;17.60;69.60;;;;;;5017389;28;20128;-66
2021/06/13 04:13:33;;;;;;;0.00;0.00;;;17.60;69.60;;;;;;5030868;28;20507;-66
2021/06/13 04:16:07;;;;;;;0.00;0.00;;;17.60;69.50;;;;;;5037860;28;20429;-66
2021/06/13 04:18:35;;;;;;;0.08;0.08;;;17.60;69.50;;;;;;5034280;28;20045;-66
2021/06/13 04:21:08;;;;;;;0.00;0.00;;;17.60;69.50;;;;;;5033846;28;20088;-66
2021/06/13 04:23:35;;;;;;;0.00;0.00;;;17.50;69.40;;;;;;5034298;28;20119;-66
2021/06/13 04:26:02;;;;;;;0.00;0.00;;;17.60;69.40;;;;;;5034580;28;20046;-66
2021/06/13 04:28:29;;;;;;;0.10;0.10;;;17.60;69.50;;;;;;5034129;28;20143;-66
2021/06/13 04:31:02;;;;;;;0.00;0.00;;;17.50;69.40;;;;;;5034055;28;20183;-66
2021/06/13 04:33:32;;;;;;;0.00;0.00;;;17.50;69.30;;;;;;5034263;28;20413;-66
2021/06/13 04:35:59;;;;;;;0.00;0.00;;;17.50;69.20;;;;;;5035191;28;20136;-65
2021/06/13 04:38:26;;;;;;;0.00;0.00;;;17.50;69.20;;;;;;5033633;28;20042;-65
2021/06/13 04:40:53;;;;;;;0.00;0.00;;;17.50;69.20;;;;;;5033827;28;20485;-66
2021/06/13 04:43:19;;;;;;;0.00;0.00;;;17.50;69.10;;;;;;5040589;28;20509;-66
2021/06/13 04:45:46;;;;;;;0.00;0.00;;;17.50;69.10;;;;;;5033640;28;20464;-66
2021/06/13 04:48:12;;;;;;;0.00;0.00;;;17.50;69.10;;;;;;5033824;28;20124;-66
2021/06/13 04:50:41;;;;;;;0.25;0.10;;;17.50;69.00;;;;;;5033671;28;20075;-66
2021/06/13 04:53:48;;;;;;;0.00;0.00;;;17.50;69.00;;;;;;5033583;28;20095;-66
2021/06/13 04:56:34;;;;;;;0.00;0.00;;;17.50;69.00;;;;;;5024157;28;20054;-66
2021/06/13 04:59:01;;;;;;;0.00;0.00;;;17.50;68.90;;;;;;5017813;28;20053;-66
2021/06/13 05:01:27;;;;;;;0.00;0.00;;;17.50;68.90;;;;;;5033891;28;20128;-66
2021/06/13 05:03:54;;;;;;;0.00;0.00;;;17.50;68.80;;;;;;5033307;28;20046;-66
2021/06/13 05:06:21;;;;;;;0.00;0.00;;;17.50;68.80;;;;;;5033493;28;20077;-66
2021/06/13 05:08:48;;;;;;;0.00;0.00;;;17.50;68.70;;;;;;5041662;28;20124;-66
2021/06/13 05:11:14;;;;;;;0.00;0.00;;;17.50;68.70;;;;;;5033539;28;20080;-65
2021/06/13 05:13:41;;;;;;;0.00;0.00;;;17.50;68.70;;;;;;5033379;28;20056;-65
2021/06/13 05:16:07;;;;;;;0.10;0.10;;;17.50;68.60;;;;;;5033649;28;20512;-66
2021/06/13 05:18:34;;;;;;;0.00;0.00;;;17.50;68.70;;;;;;5040841;28;20053;-65
2021/06/13 05:21:01;;;;;;;0.00;0.00;;;17.50;68.70;;;;;;5034457;28;20099;-66
2021/06/13 05:23:28;;;;;;;0.00;0.00;;;17.50;68.70;;;;;;5033397;28;20049;-66
2021/06/13 05:25:56;;;;;;;0.10;0.10;;;17.50;68.60;;;;;;5033177;28;20076;-66
2021/06/13 05:28:24;;;;;;;0.00;0.00;;;17.50;68.50;;;;;;5032379;28;20111;-66
2021/06/13 05:30:50;;;;;;;0.00;0.00;;;17.60;68.50;;;;;;5032874;28;20139;-66
2021/06/13 05:33:17;;;;;;;0.00;0.00;;;17.60;68.50;;;;;;5032766;28;20136;-66
2021/06/13 05:35:44;;;;;;;0.05;0.05;;;17.60;68.40;;;;;;5043280;28;20056;-66
2021/06/13 05:38:11;;;;;;;0.00;0.00;;;17.60;68.30;;;;;;5040063;28;20088;-66
2021/06/13 05:40:38;;;;;;;0.00;0.00;;;17.60;68.20;;;;;;5038689;28;20045;-66
2021/06/13 05:43:09;;;;;;;0.00;0.00;;;17.60;68.20;;;;;;5045447;28;20041;-66
2021/06/13 05:45:37;;;;;;;0.00;0.00;;;17.70;69.30;;;;;;5032852;28;20565;-66
2021/06/13 05:48:05;;;;;;;0.10;0.00;;;17.70;68.30;;;;;;5032520;28;20134;-66
2021/06/13 05:50:32;;;;;;;0.00;0.00;;;17.70;68.10;;;;;;5032703;28;20132;-66
2021/06/13 05:53:00;;;;;;;0.00;0.00;;;17.70;68.00;;;;;;5032419;28;20056;-66
2021/06/13 05:55:27;;;;;;;0.00;0.00;;;17.70;68.00;;;;;;5032514;28;20099;-66
2021/06/13 05:57:53;;;;;;;0.00;0.00;;;17.70;68.00;;;;;;5032552;28;20108;-66
2021/06/13 06:00:23;;;;;;;0.00;0.00;;;17.70;68.00;;;;;;5032101;28;20135;-66
2021/06/13 06:02:50;;;;;;;0.00;0.00;;;17.70;68.00;;;;;;5031964;28;20440;-66
2021/06/13 06:05:18;;;;;;;0.00;0.00;;;17.70;68.00;;;;;;5032190;28;20046;-66
2021/06/13 06:07:45;;;;;;;0.00;0.00;;;17.70;68.00;;;;;;5031931;28;20041;-65
2021/06/13 06:10:13;;;;;;;0.00;0.00;;;17.80;67.90;;;;;;5032098;28;20417;-66
2021/06/13 06:12:42;;;;;;;0.00;0.00;;;17.80;68.00;;;;;;5031862;28;20429;-66
2021/06/13 06:15:11;;;;;;;0.00;0.00;;;17.80;68.00;;;;;;5031776;28;20049;-66
2021/06/13 06:17:38;;;;;;;0.00;0.00;;;17.80;68.00;;;;;;5031594;28;20086;-66
2021/06/13 06:20:05;;;;;;;0.00;0.00;;;17.90;68.10;;;;;;5032136;28;20102;-66
2021/06/13 06:22:31;;;;;;;0.00;0.00;;;17.90;68.00;;;;;;5031670;28;20102;-66
2021/06/13 06:24:58;;;;;;;0.00;0.00;;;17.90;68.00;;;;;;5039451;28;20094;-66
2021/06/13 06:27:24;;;;;;;0.00;0.00;;;18.00;68.00;;;;;;5036677;28;20091;-66
2021/06/13 06:29:50;;;;;;;0.00;0.00;;;18.00;68.10;;;;;;5031825;28;20406;-66
2021/06/13 06:32:17;;;;;;;0.00;0.00;;;18.00;68.00;;;;;;5031456;28;20127;-66
2021/06/13 06:34:43;;;;;;;0.00;0.00;;;18.10;68.00;;;;;;5031717;28;20049;-66
2021/06/13 06:37:09;;;;;;;0.00;0.00;;;18.20;68.00;;;;;;5033043;28;20049;-66
2021/06/13 06:39:36;;;;;;;0.00;0.00;;;18.20;68.00;;;;;;5012662;28;20077;-66
2021/06/13 06:42:02;;;;;;;0.00;0.00;;;18.20;68.00;;;;;;5031548;28;20132;-66
2021/06/13 06:44:29;;;;;;;0.00;0.00;;;18.20;67.90;;;;;;5031366;28;20551;-66
2021/06/13 06:46:55;;;;;;;0.00;0.00;;;18.30;68.00;;;;;;5031435;28;20056;-66
2021/06/13 06:49:21;;;;;;;0.00;0.00;;;18.40;68.10;;;;;;5031882;28;20056;-66
2021/06/13 06:51:47;;;;;;;0.00;0.00;;;18.40;68.10;;;;;;5031082;28;20829;-66
2021/06/13 06:54:14;;;;;;;0.00;0.00;;;18.50;68.10;;;;;;5031681;28;20076;-66
2021/06/13 06:56:40;;;;;;;0.00;0.00;;;18.50;68.10;;;;;;5031235;28;20084;-66
2021/06/13 06:59:06;;;;;;;0.00;0.00;;;18.60;68.10;;;;;;5030944;28;20093;-66
2021/06/13 07:01:33;;;;;;;0.00;0.00;;;18.70;68.00;;;;;;5034862;28;20049;-66
2021/06/13 07:03:59;;;;;;;0.00;0.00;;;18.80;68.00;;;;;;5047609;28;20125;-66
2021/06/13 07:06:25;;;;;;;0.00;0.00;;;18.90;67.90;;;;;;5041257;28;20128;-66
2021/06/13 07:08:52;;;;;;;0.00;0.00;;;18.90;67.80;;;;;;5030899;28;20128;-66
2021/06/13 07:11:18;;;;;;;0.10;0.00;;;19.00;67.80;;;;;;5031486;28;20132;-66
2021/06/13 07:13:44;;;;;;;0.00;0.00;;;19.10;67.80;;;;;;5030898;28;20087;-66
2021/06/13 07:16:11;;;;;;;0.00;0.00;;;19.20;67.80;;;;;;5031522;28;20081;-66
2021/06/13 07:18:37;;;;;;;0.00;0.00;;;19.30;67.60;;;;;;5031605;28;20136;-66
2021/06/13 07:21:05;;;;;;;0.00;0.00;;;19.40;67.30;;;;;;5031031;28;20526;-66
2021/06/13 07:23:31;;;;;;;0.00;0.00;;;19.40;67.20;;;;;;5031298;28;20081;-66
2021/06/13 07:25:57;;;;;;;0.00;0.00;;;19.40;66.90;;;;;;5030658;28;20185;-66
2021/06/13 07:28:24;;;;;;;0.00;0.00;;;19.40;66.90;;;;;;5034429;28;20056;-66
2021/06/13 07:30:51;;;;;;;0.00;0.00;;;19.40;67.00;;;;;;5030596;28;20559;-66
2021/06/13 07:33:17;;;;;;;0.00;0.00;;;19.60;67.20;;;;;;5013610;28;20128;-66
2021/06/13 07:35:43;;;;;;;0.00;0.00;;;19.70;66.90;;;;;;5031470;28;20172;-66
2021/06/13 07:38:10;;;;;;;0.00;0.00;;;19.70;66.60;;;;;;5032744;28;20180;-66
2021/06/13 07:40:38;;;;;;;0.00;0.00;;;19.90;66.70;;;;;;5031324;28;20175;-66
2021/06/13 07:43:04;;;;;;;0.00;0.00;;;20.00;66.30;;;;;;5030973;28;20053;-66
2021/06/13 07:45:31;;;;;;;0.00;0.00;;;20.00;66.00;;;;;;5031117;28;20629;-66
2021/06/13 07:47:57;;;;;;;0.00;0.00;;;20.10;65.70;;;;;;5033619;28;20381;-66
2021/06/13 07:50:23;;;;;;;0.00;0.00;;;20.10;65.70;;;;;;5035917;28;20187;-65
2021/06/13 07:52:50;;;;;;;0.00;0.00;;;20.10;65.40;;;;;;5035142;28;20120;-66
2021/06/13 07:55:18;;;;;;;0.00;0.00;;;20.10;65.80;;;;;;5035332;28;20057;-66
2021/06/13 07:57:45;;;;;;;0.00;0.00;;;20.00;65.80;;;;;;5035425;28;20134;-66
2021/06/13 08:00:19;;;;;;;0.00;0.00;;;20.10;65.90;;;;;;5033848;28;20049;-66
2021/06/13 08:02:46;;;;;;;0.00;0.00;;;20.20;65.80;;;;;;5035675;28;20054;-66
2021/06/13 08:05:25;;;;;;;0.85;0.10;;;20.30;65.20;;;;;;5035216;28;20361;-66
2021/06/13 08:08:00;;;;;;;0.00;0.00;;;20.30;65.20;;;;;;5041896;28;20052;-66
2021/06/13 08:10:28;;;;;;;0.00;0.00;;;20.40;65.30;;;;;;5038892;28;20099;-66
2021/06/13 08:12:55;;;;;;;0.00;0.00;;;20.50;65.30;;;;;;5034334;28;20076;-66
2021/06/13 08:15:22;;;;;;;0.00;0.00;;;20.60;65.30;;;;;;5034987;28;20133;-66
2021/06/13 08:17:49;;;;;;;0.20;0.00;;;20.80;64.40;;;;;;5034163;28;20107;-66
2021/06/13 08:20:16;;;;;;;0.00;0.00;;;20.80;64.00;;;;;;5033819;28;20128;-66
2021/06/13 08:22:43;;;;;;;0.00;0.00;;;20.80;64.20;;;;;;5033722;28;20045;-66
2021/06/13 08:25:11;;;;;;;0.08;0.00;;;21.00;64.30;;;;;;5033961;28;20091;-66
2021/06/13 08:27:38;;;;;;;0.00;0.00;;;21.20;64.00;;;;;;5034131;28;20053;-67
2021/06/13 08:30:07;;;;;;;0.00;0.00;;;21.30;63.60;;;;;;5034328;28;20132;-66
2021/06/13 08:32:33;;;;;;;0.00;0.00;;;21.50;62.90;;;;;;5034545;28;20061;-62
2021/06/13 08:35:00;;;;;;;0.00;0.00;;;21.60;62.60;;;;;;5033968;28;20245;-62
2021/06/13 08:37:26;;;;;;;0.00;0.00;;;21.70;62.60;;;;;;5016806;28;20552;-62
2021/06/13 08:39:53;;;;;;;0.00;0.00;;;21.90;62.40;;;;;;5033896;28;20465;-62
2021/06/13 08:42:20;;;;;;;0.00;0.00;;;22.10;61.40;;;;;;5033256;28;20124;-62
2021/06/13 08:44:46;;;;;;;0.00;0.00;;;22.20;60.90;;;;;;5033792;28;20119;-62
2021/06/13 08:47:17;;;;;;;0.00;0.00;;;22.30;60.90;;;;;;5033473;28;20409;-62
2021/06/13 08:49:45;;;;;;;0.00;0.00;;;22.50;60.80;;;;;;5033567;28;20152;-63
2021/06/13 08:52:11;;;;;;;0.00;0.00;;;22.60;60.30;;;;;;5033346;28;20056;-62
2021/06/13 08:54:39;;;;;;;0.00;0.00;;;22.80;60.20;;;;;;5033695;28;20046;-62
2021/06/13 08:57:07;;;;;;;0.00;0.00;;;23.00;59.30;;;;;;5032930;28;20045;-63
2021/06/13 08:59:34;;;;;;;0.00;0.00;;;23.00;58.50;;;;;;5033512;28;20052;-62
2021/06/13 09:02:00;;;;;;;0.00;0.00;;;23.10;58.40;;;;;;5033523;28;20054;-62
2021/06/13 09:04:27;;;;;;;0.00;0.00;;;23.10;58.60;;;;;;5030615;28;20038;-62
2021/06/13 09:06:53;;;;;;;0.00;0.00;;;23.20;58.90;;;;;;5027283;28;20042;-62
2021/06/13 09:09:29;;;;;;;0.00;0.00;;;23.40;58.80;;;;;;5002409;28;20052;-62
2021/06/13 09:12:01;;;;;;;0.00;0.00;;;23.50;58.50;;;;;;5013212;28;20061;-63
2021/06/13 09:14:28;;;;;;;0.00;0.00;;;23.70;57.70;;;;;;5015333;28;20497;-63
2021/06/13 09:16:55;;;;;;;0.25;0.00;;;23.80;57.60;;;;;;5012883;28;20064;-63
2021/06/13 09:19:22;;;;;;;0.00;0.00;;;23.90;56.90;;;;;;5015494;28;20106;-63
2021/06/13 09:21:49;;;;;;;0.00;0.00;;;24.00;56.10;;;;;;5014926;28;20052;-63
2021/06/13 09:24:20;;;;;;;0.00;0.00;;;24.10;55.70;;;;;;5030015;28;20038;-63
2021/06/13 09:26:47;;;;;;;0.00;0.00;;;24.10;56.00;;;;;;5038614;28;20134;-62
2021/06/13 09:29:14;;;;;;;0.00;0.00;;;24.20;55.60;;;;;;5032884;28;20049;-66
2021/06/13 09:31:40;;;;;;;0.00;0.00;;;24.20;55.30;;;;;;5032848;28;20179;-62
2021/06/13 09:34:16;;;;;;;0.00;0.00;;;24.30;55.60;;;;;;5032574;28;20522;-64
2021/06/13 09:36:44;;;;;;;0.00;0.00;;;24.40;55.40;;;;;;5030687;28;20167;-64
2021/06/13 09:39:14;;;;;;;0.10;0.00;;;24.50;54.60;;;;;;5026446;28;20045;-64
2021/06/13 09:41:43;;;;;;;0.95;0.00;;;24.60;54.50;;;;;;5022202;28;20046;-64
2021/06/13 09:44:15;;;;;;;0.00;0.00;;;24.80;54.40;;;;;;5024773;28;20053;-64
2021/06/13 09:46:44;;;;;;;0.00;0.00;;;24.90;54.30;;;;;;5014491;28;20049;-64
2021/06/13 09:49:16;;;;;;;0.00;0.00;;;25.00;53.50;;;;;;5034311;28;20128;-63
2021/06/13 09:51:50;;;;;;;0.00;0.00;;;25.10;53.20;;;;;;5020834;28;20095;-65
2021/06/13 09:54:19;;;;;;;0.10;0.00;;;25.20;52.80;;;;;;5024502;28;20049;-63
2021/06/13 09:56:46;;;;;;;0.00;0.00;;;25.20;52.20;;;;;;5032358;28;20124;-63
2021/06/13 09:59:15;;;;;;;0.00;0.00;;;25.20;51.40;;;;;;5032413;28;20110;-63
2021/06/13 10:01:46;;;;;;;0.00;0.00;;;25.10;50.60;;;;;;5015764;28;20064;-62
2021/06/13 10:04:18;;;;;;;0.00;0.00;;;25.00;51.20;;;;;;5032659;28;20132;-66
2021/06/13 10:06:47;;;;;;;0.00;0.00;;;25.00;51.00;;;;;;5025094;28;20041;-65
2021/06/13 10:09:14;;;;;;;0.00;0.00;;;25.00;51.70;;;;;;5031633;28;20068;-65
2021/06/13 10:11:41;;;;;;;0.00;0.00;;;25.00;52.10;;;;;;5032214;28;20049;-63
2021/06/13 10:14:13;;;;;;;0.00;0.00;;;25.10;52.30;;;;;;5031577;28;20041;-63
2021/06/13 10:16:51;;;;;;;0.00;0.00;;;25.10;52.10;;;;;;5032026;28;20056;-63
2021/06/13 10:19:26;;;;;;;0.00;0.00;;;25.20;51.90;;;;;;5031038;28;20076;-63
2021/06/13 10:21:58;;;;;;;0.00;0.00;;;25.30;51.90;;;;;;5032214;28;20552;-63
2021/06/13 10:24:26;;;;;;;0.00;0.00;;;25.40;51.70;;;;;;5031561;28;20083;-64
2021/06/13 10:26:58;;;;;;;0.00;0.00;;;25.40;51.30;;;;;;5039715;28;20183;-64
2021/06/13 10:29:27;;;;;;;0.00;0.00;;;25.30;50.00;;;;;;5031665;28;20052;-65
2021/06/13 10:31:56;;;;;;;0.00;0.00;;;25.30;49.10;;;;;;5032256;28;20053;-62
2021/06/13 10:34:26;;;;;;;0.00;0.00;;;25.20;48.20;;;;;;5031713;28;20095;-62
2021/06/13 10:36:58;;;;;;;0.00;0.00;;;25.10;47.20;;;;;;5031729;28;20184;-65
2021/06/13 10:39:28;;;;;;;0.00;0.00;;;24.90;48.10;;;;;;5031428;28;20095;-68
2021/06/13 10:41:59;;;;;;;0.20;0.00;;;24.90;49.30;;;;;;5032004;28;20037;-69
2021/06/13 10:44:30;;;;;;;0.00;0.00;;;24.90;50.10;;;;;;5030695;28;20482;-65
2021/06/13 10:47:16;;;;;;;0.00;0.00;;;24.90;48.20;;;;;;5038602;28;20056;-68
2021/06/13 10:49:55;;;;;;;0.00;0.00;;;24.80;47.00;;;;;;5031263;28;20542;-68
2021/06/13 10:52:26;;;;;;;0.00;0.00;;;24.80;48.00;;;;;;5013066;28;20056;-65
2021/06/13 10:54:53;;;;;;;0.00;0.00;;;24.80;49.30;;;;;;5030873;28;20065;-64
2021/06/13 10:57:20;;;;;;;0.00;0.00;;;24.90;49.30;;;;;;5031073;28;20047;-64
2021/06/13 11:00:02;;;;;;;0.00;0.00;;;25.00;48.60;;;;;;5031110;28;20056;-65
2021/06/13 11:02:38;;;;;;;0.00;0.00;;;25.00;47.70;;;;;;5030742;28;20571;-64
2021/06/13 11:05:07;;;;;;;0.75;0.00;;;25.10;47.80;;;;;;5030845;28;20469;-65
2021/06/13 11:07:41;;;;;;;0.00;0.00;;;25.10;48.60;;;;;;5030496;28;20042;-65
2021/06/13 11:10:10;;;;;;;0.00;0.00;;;25.10;48.60;;;;;;5031453;28;20049;-65
2021/06/13 11:12:47;;;;;;;0.00;0.00;;;25.20;48.80;;;;;;5031151;28;20052;-66
2021/06/13 11:15:35;;;;;;;0.00;0.00;;;25.20;47.40;;;;;;5030976;28;20049;-65
2021/06/13 11:18:04;;;;;;;0.00;0.00;;;25.20;47.40;;;;;;5031668;28;20095;-65
2021/06/13 11:23:04;;;;;;;0.00;0.00;;;25.20;48.10;;;;;;5030345;28;20180;-65
2021/06/13 11:25:31;;;;;;;0.00;0.00;;;25.20;47.30;;;;;;5033431;28;20489;-65
2021/06/13 11:28:23;;;;;;;0.00;0.00;;;25.10;47.20;;;;;;5035843;28;20128;-65
2021/06/13 11:30:58;;;;;;;0.00;0.00;;;25.00;48.50;;;;;;5035862;28;20053;-65
2021/06/13 11:33:44;;;;;;;0.00;0.00;;;24.90;49.20;;;;;;5035709;28;20128;-65
2021/06/13 11:36:22;;;;;;;0.00;0.00;;;24.80;49.20;;;;;;5036879;28;20054;-65
2021/06/13 11:39:16;;;;;;;0.03;0.00;;;24.80;49.70;;;;;;5035795;28;20037;-65
2021/06/13 11:41:48;;;;;;;0.00;0.00;;;24.90;50.40;;;;;;5033950;28;20585;-65
2021/06/13 11:44:20;;;;;;;0.00;0.00;;;25.00;50.90;;;;;;5035229;28;20128;-65
2021/06/13 11:46:49;;;;;;;0.00;0.00;;;25.10;50.50;;;;;;5033766;28;20041;-65
2021/06/13 11:49:19;;;;;;;0.00;0.00;;;25.10;49.70;;;;;;5035393;28;20420;-65
2021/06/13 11:52:00;;;;;;;0.00;0.00;;;25.10;49.60;;;;;;5034167;28;20451;-66
2021/06/13 11:54:34;;;;;;;0.00;0.00;;;25.20;49.50;;;;;;5025768;28;20046;-66
2021/06/13 11:57:05;;;;;;;0.20;0.00;;;25.20;49.40;;;;;;5026093;28;20053;-65
2021/06/13 11:59:33;;;;;;;0.00;0.00;;;25.20;49.30;;;;;;5031648;28;20106;-65
2021/06/13 12:02:01;;;;;;;0.00;0.00;;;25.30;49.10;;;;;;5032295;28;20053;-66
2021/06/13 12:04:29;;;;;;;0.00;0.00;;;25.30;49.00;;;;;;5026955;28;20417;-66
2021/06/13 12:06:57;;;;;;;0.00;0.00;;;25.30;47.70;;;;;;5027510;28;20184;-66
2021/06/13 12:09:25;;;;;;;0.00;0.00;;;25.30;47.70;;;;;;5012531;28;20668;-66
2021/06/13 12:11:56;;;;;;;0.00;0.00;;;25.30;47.60;;;;;;5026860;28;20084;-66
2021/06/13 12:14:28;;;;;;;;;;;25.30;48.00;;;;;;5029397;28;20481;-66
2021/06/13 12:17:14;;;;;;;0.00;0.00;;;25.40;48.40;;;;;;5030020;28;19925;-67
2021/06/13 12:19:46;;;;;;;0.00;0.00;;;25.40;47.20;;;;;;5023654;28;20049;-66
2021/06/13 12:22:13;;;;;;;0.00;0.00;;;25.30;46.30;;;;;;5030030;28;20053;-67
2021/06/13 12:27:21;;;;;;;0.00;0.00;;;25.30;47.50;;;;;;5030568;28;20532;-66
2021/06/13 12:27:29;;;;;;;0.00;0.00;;;25.30;45.50;;;;;;5030483;28;20048;-66
2021/06/13 12:30:04;;;;;;;0.00;0.00;;;25.20;45.70;;;;;;5030474;28;20087;-67
2021/06/13 12:32:31;;;;;;;0.00;0.00;;;25.20;43.30;;;;;;5009526;28;20057;-67
2021/06/13 12:35:16;;;;;;;0.00;0.00;;;25.20;42.40;;;;;;5029898;28;20088;-67
2021/06/13 12:38:02;;;;;;;0.00;0.00;;;25.20;43.40;;;;;;5027401;28;20505;-67
2021/06/13 12:40:34;;;;;;;0.00;0.00;;;25.20;44.20;;;;;;5030164;28;20512;-67
2021/06/13 12:43:01;;;;;;;0.00;0.00;;;25.20;44.50;;;;;;5030282;28;20060;-67
2021/06/13 12:45:28;;;;;;;0.47;0.00;;;25.20;44.70;;;;;;5030194;28;20060;-67
2021/06/13 12:47:59;;;;;;;0.65;0.00;;;25.20;45.10;;;;;;5029471;28;20057;-67
2021/06/13 12:50:33;;;;;;;0.00;0.00;;;25.20;45.40;;;;;;5030214;28;20501;-67
2021/06/13 12:53:02;;;;;;;0.00;0.00;;;25.20;45.20;;;;;;5029835;28;20088;-67
2021/06/13 12:55:38;;;;;;;0.00;0.00;;;25.30;43.50;;;;;;5030170;28;20061;-67
2021/06/13 12:58:11;;;;;;;0.00;0.00;;;25.30;43.60;;;;;;5029859;28;20057;-67
2021/06/13 13:00:38;;;;;;;0.00;0.00;;;25.40;43.80;;;;;;5009790;28;20046;-67
2021/06/13 13:03:12;;;;;;;0.00;0.00;;;25.40;43.60;;;;;;5010174;28;20050;-67
2021/06/13 13:05:41;;;;;;;0.10;0.00;;;25.50;44.30;;;;;;5009758;28;20132;-67